createdAt,value
2022-09-06T00:01:10.938Z,6.40
2022-09-06T00:04:18.650Z,6.23
2022-09-06T00:07:25.159Z,5.43
2022-09-06T00:10:33.827Z,5.13
2022-09-06T00:13:40.513Z,5.37
2022-09-06T00:16:47.093Z,5.37
2022-09-06T00:19:55.134Z,5.93
2022-09-06T00:23:05.620Z,6.03
2022-09-06T00:26:12.261Z,6.00
2022-09-06T00:29:18.683Z,6.07
2022-09-06T00:32:25.297Z,5.63
2022-09-06T00:35:32.682Z,7.00
2022-09-06T00:38:39.968Z,6.70
2022-09-06T00:41:46.518Z,6.23
2022-09-06T00:44:53.151Z,6.27
2022-09-06T00:48:01.476Z,6.33
2022-09-06T00:51:12.718Z,6.77
2022-09-06T00:54:19.556Z,6.23
2022-09-06T00:57:27.245Z,6.90
2022-09-06T01:00:33.655Z,6.17
2022-09-06T01:03:40.411Z,6.30
2022-09-06T01:06:58.687Z,6.00
2022-09-06T01:10:38.654Z,6.03
2022-09-06T01:13:55.814Z,5.80
2022-09-06T01:17:12.527Z,6.53
2022-09-06T01:20:53.067Z,5.83
2022-09-06T01:24:38.897Z,6.40
2022-09-06T01:28:23.639Z,6.43
2022-09-06T01:31:36.598Z,5.87
2022-09-06T01:34:49.134Z,6.30
2022-09-06T01:37:55.982Z,6.40
2022-09-06T01:41:02.591Z,5.83
2022-09-06T01:44:10.101Z,6.00
2022-09-06T01:47:26.907Z,6.30
2022-09-06T01:50:52.334Z,6.07
2022-09-06T01:54:25.898Z,6.47
2022-09-06T01:57:53.476Z,6.30
2022-09-06T02:01:07.576Z,5.83
2022-09-06T02:04:22.531Z,6.67
2022-09-06T02:07:32.691Z,6.03
2022-09-06T02:10:46.367Z,5.47
2022-09-06T02:13:58.153Z,6.43
2022-09-06T02:17:07.022Z,6.60
2022-09-06T02:20:19.419Z,6.80
2022-09-06T02:23:30.282Z,6.93
2022-09-06T02:26:41.928Z,7.03
2022-09-06T02:29:48.605Z,7.03
2022-09-06T02:32:59.699Z,6.67
2022-09-06T02:36:10.117Z,7.23
2022-09-06T02:39:16.735Z,7.23
2022-09-06T02:42:25.309Z,7.33
2022-09-06T02:45:31.726Z,6.83
2022-09-06T02:48:39.398Z,7.27
2022-09-06T02:51:45.959Z,7.70
2022-09-06T02:54:52.463Z,7.57
2022-09-06T02:57:58.874Z,6.70
2022-09-06T03:01:05.876Z,6.73
2022-09-06T03:04:14.050Z,7.03
2022-09-06T03:07:20.435Z,6.40
2022-09-06T03:10:27.538Z,6.30
2022-09-06T03:13:34.356Z,6.50
2022-09-06T03:16:40.945Z,6.67
2022-09-06T03:19:48.705Z,6.27
2022-09-06T03:22:55.318Z,6.00
2022-09-06T03:26:01.581Z,6.30
2022-09-06T03:29:08.083Z,6.80
2022-09-06T03:32:14.539Z,7.03
2022-09-06T03:35:22.306Z,7.40
2022-09-06T03:38:30.220Z,8.33
2022-09-06T03:41:38.178Z,8.10
2022-09-06T03:44:44.649Z,8.50
2022-09-06T03:47:51.038Z,8.50
2022-09-06T03:51:00.183Z,8.03
2022-09-06T03:54:07.479Z,7.80
2022-09-06T03:57:13.948Z,7.97
2022-09-06T04:00:20.346Z,7.70
2022-09-06T04:03:26.890Z,8.20
2022-09-06T04:06:34.682Z,8.37
2022-09-06T04:09:40.670Z,8.30
2022-09-06T04:12:46.941Z,8.90
2022-09-06T04:15:53.455Z,8.83
2022-09-06T04:19:01.495Z,8.80
2022-09-06T04:22:09.270Z,9.57
2022-09-06T04:25:15.528Z,9.43
2022-09-06T04:28:23.105Z,8.57
2022-09-06T04:31:29.495Z,9.27
2022-09-06T04:34:35.663Z,8.90
2022-09-06T04:37:43.499Z,8.80
2022-09-06T04:40:49.844Z,8.60
2022-09-06T04:43:56.562Z,9.33
2022-09-06T04:47:10.262Z,9.00
2022-09-06T04:50:16.844Z,10.27
2022-09-06T04:53:28.948Z,10.03
2022-09-06T04:56:35.370Z,9.87
2022-09-06T04:59:41.687Z,9.63
2022-09-06T05:02:48.510Z,10.00
2022-09-06T05:06:06.562Z,10.30
2022-09-06T05:09:14.866Z,10.70
2022-09-06T05:12:21.622Z,10.00
2022-09-06T05:15:27.814Z,8.83
2022-09-06T05:18:35.103Z,10.73
2022-09-06T05:21:41.543Z,9.80
2022-09-06T05:24:49.235Z,9.07
2022-09-06T05:27:55.667Z,9.70
2022-09-06T05:31:09.610Z,9.13
2022-09-06T05:34:16.166Z,10.00
2022-09-06T05:37:22.511Z,9.27
2022-09-06T05:40:30.411Z,9.53
2022-09-06T05:43:36.815Z,10.50
2022-09-06T05:46:45.232Z,9.00
2022-09-06T05:49:52.172Z,9.60
2022-09-06T05:52:58.651Z,9.20
2022-09-06T05:56:07.612Z,9.00
2022-09-06T05:59:13.891Z,9.17
2022-09-06T06:02:20.659Z,8.87
2022-09-06T06:05:27.179Z,9.57
2022-09-06T06:08:33.813Z,8.50
2022-09-06T06:11:42.304Z,9.10
2022-09-06T06:14:48.629Z,8.93
2022-09-06T06:17:54.840Z,8.07
2022-09-06T06:21:13.283Z,7.40
2022-09-06T06:24:19.823Z,7.03
2022-09-06T06:27:27.752Z,6.47
2022-09-06T06:30:34.107Z,5.70
2022-09-06T06:33:40.590Z,5.63
2022-09-06T06:36:47.178Z,5.33
2022-09-06T06:39:53.545Z,5.07
2022-09-06T06:43:01.532Z,4.67
2022-09-06T06:46:10.711Z,5.07
2022-09-06T06:49:16.955Z,5.07
2022-09-06T06:52:24.310Z,5.20
2022-09-06T06:55:30.638Z,4.73
2022-09-06T06:58:38.184Z,4.43
2022-09-06T07:01:44.745Z,4.47
2022-09-06T07:04:51.430Z,4.40
2022-09-06T07:07:57.962Z,4.23
2022-09-06T07:11:05.142Z,4.50
2022-09-06T07:14:13.122Z,3.87
2022-09-06T07:17:19.728Z,4.20
2022-09-06T07:20:27.037Z,3.73
2022-09-06T07:30:27.510Z,4.03
2022-09-06T07:33:36.588Z,3.83
2022-09-06T07:36:43.055Z,4.37
2022-09-06T07:39:49.452Z,3.73
2022-09-06T07:42:58.306Z,3.57
2022-09-06T07:46:08.778Z,3.73
2022-09-06T07:49:15.258Z,4.00
2022-09-06T07:55:48.120Z,3.70
2022-09-06T07:58:54.513Z,3.40
2022-09-06T08:02:02.356Z,3.50
2022-09-06T08:12:06.568Z,3.00
2022-09-06T08:15:13.055Z,3.20
2022-09-06T08:18:20.992Z,2.97
2022-09-06T08:21:30.108Z,2.90
2022-09-06T08:24:36.746Z,2.47
2022-09-06T08:27:43.343Z,2.70
2022-09-06T08:30:49.594Z,2.60
2022-09-06T08:33:57.969Z,2.20
2022-09-06T08:37:04.574Z,2.60
2022-09-06T08:40:11.932Z,2.35
2022-09-06T08:43:21.095Z,2.30
2022-09-06T08:46:36.610Z,2.50
2022-09-06T08:49:46.368Z,1.90
2022-09-06T08:53:18.710Z,1.75
2022-09-06T08:56:30.863Z,2.10
2022-09-06T08:59:40.646Z,1.80
2022-09-06T09:02:51.735Z,1.73
2022-09-06T09:06:03.447Z,1.73
2022-09-06T09:09:14.564Z,1.55
2022-09-06T09:12:24.539Z,1.90
2022-09-06T09:15:31.460Z,1.70
2022-09-06T09:18:41.289Z,1.73
2022-09-06T09:21:49.699Z,1.80
2022-09-06T09:24:59.905Z,1.60
2022-09-06T09:28:16.664Z,1.55
2022-09-06T09:31:36.280Z,2.22
2022-09-06T09:34:42.674Z,1.73
2022-09-06T09:38:04.938Z,1.58
2022-09-06T09:41:29.646Z,1.80
2022-09-06T09:44:37.451Z,1.60
2022-09-06T09:47:43.670Z,1.60
2022-09-06T09:50:50.275Z,1.48
2022-09-06T09:54:01.849Z,1.65
2022-09-06T09:57:12.115Z,1.50
2022-09-06T10:00:36.279Z,1.50
2022-09-06T10:07:12.454Z,1.60
2022-09-06T10:10:24.630Z,1.50
2022-09-06T10:13:33.554Z,1.35
2022-09-06T10:16:45.827Z,1.60
2022-09-06T10:19:52.769Z,1.75
2022-09-06T10:23:08.117Z,1.55
2022-09-06T10:26:25.166Z,1.92
2022-09-06T10:29:43.811Z,1.50
2022-09-06T10:32:58.843Z,1.33
2022-09-06T10:36:05.735Z,1.70
2022-09-06T10:39:29.416Z,1.30
2022-09-06T10:42:45.262Z,1.90
2022-09-06T10:46:00.757Z,1.60
2022-09-06T10:49:12.746Z,1.45
2022-09-06T10:52:26.611Z,1.30
2022-09-06T10:55:33.336Z,1.73
2022-09-06T11:02:33.810Z,0.90
2022-09-06T11:05:45.663Z,0.73
2022-09-06T11:08:58.232Z,0.80
2022-09-06T11:12:13.512Z,1.00
2022-09-06T11:15:23.287Z,0.90
2022-09-06T11:18:36.674Z,1.08
2022-09-06T11:22:26.465Z,1.00
2022-09-06T11:26:01.242Z,1.05
2022-09-06T11:29:10.701Z,1.00
2022-09-06T11:32:36.902Z,0.75
2022-09-06T11:35:44.978Z,1.02
2022-09-06T11:39:00.804Z,0.70
2022-09-06T11:42:09.860Z,1.10
2022-09-06T11:45:22.521Z,0.90
2022-09-06T11:48:52.097Z,1.10
2022-09-06T11:51:58.790Z,1.48
2022-09-06T11:55:05.863Z,0.90
2022-09-06T11:58:24.950Z,1.25
2022-09-06T12:01:40.919Z,1.17
2022-09-06T12:05:17.117Z,1.10
2022-09-06T12:08:33.014Z,0.95
2022-09-06T12:11:44.367Z,1.55
2022-09-06T12:14:50.538Z,1.17
2022-09-06T12:17:57.729Z,1.00
2022-09-06T12:21:06.055Z,0.80
2022-09-06T12:24:55.622Z,1.30
2022-09-06T12:28:03.441Z,1.08
2022-09-06T12:31:30.505Z,1.15
2022-09-06T12:34:39.230Z,1.10
2022-09-06T12:37:55.238Z,1.25
2022-09-06T12:41:05.772Z,1.15
2022-09-06T12:44:12.914Z,1.13
2022-09-06T12:47:26.414Z,1.10
2022-09-06T12:50:32.654Z,1.30
2022-09-06T12:53:38.925Z,1.33
2022-09-06T12:56:46.439Z,1.40
2022-09-06T12:59:55.541Z,1.48
2022-09-06T13:03:09.826Z,1.50
2022-09-06T13:06:26.865Z,1.25
2022-09-06T13:09:35.042Z,1.40
2022-09-06T13:12:47.218Z,1.27
2022-09-06T13:15:54.431Z,1.00
2022-09-06T13:19:14.649Z,1.08
2022-09-06T13:22:44.864Z,1.40
2022-09-06T13:25:53.875Z,1.05
2022-09-06T13:29:13.172Z,1.15
2022-09-06T13:32:19.586Z,0.98
2022-09-06T13:35:28.717Z,1.30
2022-09-06T13:38:41.029Z,0.82
2022-09-06T13:41:56.401Z,1.15
2022-09-06T13:45:25.190Z,0.95
2022-09-06T13:48:31.846Z,1.02
2022-09-06T13:51:40.039Z,0.80
2022-09-06T13:54:47.888Z,0.82
2022-09-06T13:57:54.429Z,1.10
2022-09-06T14:01:02.503Z,1.13
2022-09-06T14:04:11.264Z,1.10
2022-09-06T14:07:17.989Z,0.80
2022-09-06T14:10:24.567Z,1.00
2022-09-06T14:13:31.747Z,1.02
2022-09-06T14:16:40.248Z,1.00
2022-09-06T14:19:47.090Z,1.20
2022-09-06T14:22:53.727Z,1.08
2022-09-06T14:26:02.278Z,1.35
2022-09-06T14:29:09.130Z,1.35
2022-09-06T14:32:20.527Z,1.48
2022-09-06T14:35:29.001Z,1.50
2022-09-06T14:38:38.618Z,1.13
2022-09-06T14:41:48.244Z,1.30
2022-09-06T14:44:54.677Z,1.30
2022-09-06T14:48:02.974Z,1.20
2022-09-06T14:51:11.206Z,1.25
2022-09-06T14:54:19.977Z,1.30
2022-09-06T14:57:26.434Z,1.08
2022-09-06T15:00:33.268Z,1.20
2022-09-06T15:03:42.935Z,1.20
2022-09-06T15:06:50.830Z,0.90
2022-09-06T15:09:57.391Z,1.23
2022-09-06T15:13:03.974Z,1.10
2022-09-06T15:16:12.032Z,0.80
2022-09-06T15:19:20.791Z,0.70
2022-09-06T15:22:27.764Z,0.65
2022-09-06T15:25:34.146Z,0.70
2022-09-06T15:28:42.363Z,1.48
2022-09-06T15:31:51.889Z,1.45
2022-09-06T15:35:04.557Z,1.65
2022-09-06T15:38:12.763Z,1.45
2022-09-06T15:41:25.179Z,1.02
2022-09-06T15:44:31.714Z,2.03
2022-09-06T15:47:37.997Z,1.48
2022-09-06T15:50:51.634Z,1.20
2022-09-06T15:54:00.692Z,1.30
2022-09-06T15:57:07.235Z,1.08
2022-09-06T16:00:17.134Z,2.13
2022-09-06T16:03:23.994Z,1.65
2022-09-06T16:06:33.862Z,1.38
2022-09-06T16:09:40.614Z,1.23
2022-09-06T16:12:50.495Z,1.08
2022-09-06T16:15:58.359Z,1.08
2022-09-06T16:19:04.869Z,1.77
2022-09-06T16:22:12.985Z,1.30
2022-09-06T16:25:19.561Z,1.10
2022-09-06T16:28:29.469Z,1.50
2022-09-06T16:31:39.984Z,1.30
2022-09-06T16:34:46.927Z,1.20
2022-09-06T16:37:54.745Z,1.63
2022-09-06T16:41:02.494Z,1.33
2022-09-06T16:44:14.404Z,1.30
2022-09-06T16:47:20.908Z,1.52
2022-09-06T16:50:27.446Z,1.73
2022-09-06T16:53:35.177Z,1.13
2022-09-06T16:56:41.760Z,1.85
2022-09-06T16:59:48.918Z,1.33
2022-09-06T17:02:56.628Z,1.40
2022-09-06T17:06:03.091Z,1.40
2022-09-06T17:09:12.016Z,1.50
2022-09-06T17:12:18.382Z,1.40
2022-09-06T17:15:25.250Z,1.67
2022-09-06T17:18:30.885Z,1.40
2022-09-06T17:21:39.184Z,1.70
2022-09-06T17:24:47.463Z,1.55
2022-09-06T17:27:54.015Z,2.00
2022-09-06T17:31:03.645Z,1.80
2022-09-06T17:34:10.803Z,1.73
2022-09-06T17:37:17.367Z,2.00
2022-09-06T17:40:25.072Z,1.80
2022-09-06T17:43:32.454Z,1.90
2022-09-06T17:46:51.930Z,2.07
2022-09-06T17:50:06.162Z,2.10
2022-09-06T17:53:12.583Z,1.77
2022-09-06T17:56:21.474Z,2.23
2022-09-06T17:59:32.815Z,2.00
2022-09-06T18:02:41.311Z,1.90
2022-09-06T18:05:47.909Z,2.10
2022-09-06T18:08:57.303Z,1.80
2022-09-06T18:12:06.817Z,1.70
2022-09-06T18:15:13.363Z,1.60
2022-09-06T18:18:19.810Z,2.00
2022-09-06T18:21:28.343Z,2.43
2022-09-06T18:24:35.003Z,2.67
2022-09-06T18:27:42.716Z,3.20
2022-09-06T18:30:49.273Z,5.17
2022-09-06T18:33:58.022Z,3.17
2022-09-06T18:37:05.694Z,3.83
2022-09-06T18:40:12.708Z,5.40
2022-09-06T18:43:20.949Z,4.33
2022-09-06T18:46:27.204Z,4.33
2022-09-06T18:49:35.069Z,4.50
2022-09-06T18:52:41.620Z,5.37
2022-09-06T18:55:52.968Z,4.57
2022-09-06T18:59:02.135Z,4.23
2022-09-06T19:02:08.890Z,4.03
2022-09-06T19:05:15.214Z,4.17
2022-09-06T19:08:21.762Z,3.90
2022-09-06T19:11:29.108Z,4.50
2022-09-06T19:14:37.102Z,4.50
2022-09-06T19:17:43.505Z,4.20
2022-09-06T19:20:58.609Z,3.90
2022-09-06T19:24:08.164Z,3.63
2022-09-06T19:27:14.639Z,3.67
2022-09-06T19:30:22.365Z,2.77
2022-09-06T19:33:35.579Z,3.27
2022-09-06T19:36:43.246Z,3.43
2022-09-06T19:39:50.118Z,4.53
2022-09-06T19:42:57.212Z,3.67
2022-09-06T19:46:06.171Z,3.70
2022-09-06T19:49:12.631Z,3.33
2022-09-06T19:52:20.083Z,3.50
2022-09-06T19:55:26.752Z,3.73
2022-09-06T19:58:33.279Z,2.70
2022-09-06T20:01:43.227Z,2.10
2022-09-06T20:04:49.826Z,1.60
2022-09-06T20:07:56.472Z,1.67
2022-09-06T20:11:04.838Z,1.40
2022-09-06T20:14:12.201Z,1.47
2022-09-06T20:17:33.382Z,2.30
2022-09-06T20:20:40.738Z,2.20
2022-09-06T20:23:50.700Z,2.10
2022-09-06T20:26:57.740Z,2.00
2022-09-06T20:30:04.419Z,2.60
2022-09-06T20:33:12.906Z,2.70
2022-09-06T20:36:20.069Z,1.73
2022-09-06T20:39:26.790Z,2.00
2022-09-06T20:42:33.086Z,1.87
2022-09-06T20:45:39.696Z,1.90
2022-09-06T20:48:48.588Z,2.00
2022-09-06T20:51:55.241Z,1.67
2022-09-06T20:55:01.649Z,1.70
2022-09-06T20:58:08.213Z,1.60
2022-09-06T21:01:16.664Z,4.00
2022-09-06T21:04:26.115Z,2.70
2022-09-06T21:07:32.758Z,1.50
2022-09-06T21:10:39.344Z,1.60
2022-09-06T21:13:49.280Z,1.60
2022-09-06T21:16:55.947Z,1.50
2022-09-06T21:20:04.690Z,1.70
2022-09-06T21:23:11.438Z,1.70
2022-09-06T21:26:18.563Z,2.60
2022-09-06T21:29:25.309Z,3.10
2022-09-06T21:32:31.843Z,2.77
2022-09-06T21:35:39.665Z,2.33
2022-09-06T21:38:48.824Z,2.27
2022-09-06T21:41:55.772Z,2.03
2022-09-06T21:45:02.540Z,2.00
2022-09-06T21:48:08.930Z,1.90
2022-09-06T21:51:20.218Z,2.37
2022-09-06T21:54:27.062Z,2.10
2022-09-06T21:57:33.418Z,1.87
2022-09-06T22:00:40.697Z,2.30
2022-09-06T22:03:47.517Z,2.67
2022-09-06T22:06:55.575Z,2.60
2022-09-06T22:10:02.226Z,2.60
2022-09-06T22:13:08.862Z,3.00
2022-09-06T22:16:17.907Z,2.40
2022-09-06T22:19:24.685Z,2.80
2022-09-06T22:22:32.433Z,2.70
2022-09-06T22:25:39.270Z,2.90
2022-09-06T22:28:45.642Z,2.80
2022-09-06T22:31:52.464Z,2.70
2022-09-06T22:34:58.917Z,2.70
2022-09-06T22:38:07.640Z,2.80
2022-09-06T22:41:14.364Z,3.47
2022-09-06T22:44:21.188Z,2.70
2022-09-06T22:47:27.850Z,3.03
2022-09-06T22:50:34.427Z,2.90
2022-09-06T22:53:42.365Z,3.00
2022-09-06T22:56:49.155Z,2.93
2022-09-06T22:59:55.787Z,3.07
2022-09-06T23:03:02.247Z,3.13
2022-09-06T23:06:09.318Z,3.50
2022-09-06T23:09:17.520Z,3.80
2022-09-06T23:12:23.810Z,4.43
2022-09-06T23:15:30.204Z,5.83
2022-09-06T23:18:36.801Z,5.70
2022-09-06T23:21:43.131Z,5.97
2022-09-06T23:24:50.985Z,5.40
2022-09-06T23:27:59.174Z,4.80
2022-09-06T23:31:06.987Z,4.87
2022-09-06T23:34:13.124Z,5.10
2022-09-06T23:37:19.510Z,4.93
2022-09-06T23:40:27.271Z,5.17
2022-09-06T23:43:34.302Z,5.50
2022-09-06T23:46:41.153Z,4.87
2022-09-06T23:49:48.122Z,5.30
2022-09-06T23:52:54.844Z,5.00
2022-09-06T23:56:03.617Z,4.50
2022-09-06T23:59:10.437Z,3.20
